sensor_id;sensor_type;location;lat;lon;timestamp;pressure;altitude;pressure_sealevel;temperature;humidity
56040;BME280;43937;41.366;2.072;2023-09-08T00:02:24;101028.38;;;23.72;60.46
56040;BME280;43937;41.366;2.072;2023-09-08T00:04:50;101026.31;;;23.79;60.51
56040;BME280;43937;41.366;2.072;2023-09-08T00:07:15;101012.16;;;23.69;60.89
56040;BME280;43937;41.366;2.072;2023-09-08T00:09:41;101023.63;;;23.84;60.63
56040;BME280;43937;41.366;2.072;2023-09-08T00:12:07;101007.38;;;23.76;61.01
56040;BME280;43937;41.366;2.072;2023-09-08T00:14:32;101025.84;;;23.82;61.10
56040;BME280;43937;41.366;2.072;2023-09-08T00:16:57;100978.78;;;23.52;60.80
56040;BME280;43937;41.366;2.072;2023-09-08T00:19:24;100983.34;;;23.58;60.89
56040;BME280;43937;41.366;2.072;2023-09-08T00:21:49;100977.84;;;23.46;61.05
56040;BME280;43937;41.366;2.072;2023-09-08T00:24:15;101023.69;;;23.61;61.48
56040;BME280;43937;41.366;2.072;2023-09-08T00:26:41;101015.38;;;23.61;61.00
56040;BME280;43937;41.366;2.072;2023-09-08T00:29:07;100982.88;;;23.21;61.74
56040;BME280;43937;41.366;2.072;2023-09-08T00:31:33;100989.63;;;23.01;62.76
56040;BME280;43937;41.366;2.072;2023-09-08T00:33:58;101014.63;;;23.13;63.29
56040;BME280;43937;41.366;2.072;2023-09-08T00:36:24;101004.00;;;23.10;63.12
56040;BME280;43937;41.366;2.072;2023-09-08T00:38:49;101016.41;;;23.31;62.39
56040;BME280;43937;41.366;2.072;2023-09-08T00:41:17;101007.38;;;23.24;63.15
56040;BME280;43937;41.366;2.072;2023-09-08T00:43:43;101000.47;;;23.26;62.82
56040;BME280;43937;41.366;2.072;2023-09-08T00:46:09;101025.44;;;23.26;63.52
56040;BME280;43937;41.366;2.072;2023-09-08T00:48:34;101017.75;;;23.17;63.75
56040;BME280;43937;41.366;2.072;2023-09-08T00:51:01;100983.38;;;22.94;63.88
56040;BME280;43937;41.366;2.072;2023-09-08T00:53:27;101020.53;;;23.17;63.69
56040;BME280;43937;41.366;2.072;2023-09-08T00:55:53;101005.09;;;23.09;63.89
56040;BME280;43937;41.366;2.072;2023-09-08T00:58:19;101012.19;;;23.05;64.77
56040;BME280;43937;41.366;2.072;2023-09-08T01:00:45;100979.25;;;22.85;64.87
56040;BME280;43937;41.366;2.072;2023-09-08T01:03:11;101007.75;;;23.04;64.72
56040;BME280;43937;41.366;2.072;2023-09-08T01:05:38;101010.88;;;23.07;64.51
56040;BME280;43937;41.366;2.072;2023-09-08T01:08:03;101009.91;;;23.02;64.10
56040;BME280;43937;41.366;2.072;2023-09-08T01:10:29;100967.06;;;22.74;64.18
56040;BME280;43937;41.366;2.072;2023-09-08T01:12:55;100997.75;;;23.03;64.73
56040;BME280;43937;41.366;2.072;2023-09-08T01:15:20;100998.56;;;23.15;64.20
56040;BME280;43937;41.366;2.072;2023-09-08T01:17:46;100982.59;;;23.22;63.97
56040;BME280;43937;41.366;2.072;2023-09-08T01:20:20;100986.94;;;23.30;63.87
56040;BME280;43937;41.366;2.072;2023-09-08T01:25:40;100965.13;;;23.10;64.53
56040;BME280;43937;41.366;2.072;2023-09-08T01:28:08;100967.91;;;23.10;63.60
56040;BME280;43937;41.366;2.072;2023-09-08T01:30:36;100971.38;;;23.17;63.90
56040;BME280;43937;41.366;2.072;2023-09-08T01:33:02;100948.25;;;23.00;64.41
56040;BME280;43937;41.366;2.072;2023-09-08T01:36:29;100979.63;;;23.12;64.70
56040;BME280;43937;41.366;2.072;2023-09-08T01:38:54;100983.38;;;23.06;64.62
56040;BME280;43937;41.366;2.072;2023-09-08T01:41:20;100981.44;;;23.06;64.71
56040;BME280;43937;41.366;2.072;2023-09-08T01:43:45;100978.53;;;23.01;64.85
56040;BME280;43937;41.366;2.072;2023-09-08T01:47:18;100979.25;;;22.85;65.31
56040;BME280;43937;41.366;2.072;2023-09-08T01:49:43;100965.38;;;22.73;65.31
56040;BME280;43937;41.366;2.072;2023-09-08T01:52:09;100971.03;;;22.78;65.31
56040;BME280;43937;41.366;2.072;2023-09-08T01:54:34;100971.78;;;22.74;65.89
56040;BME280;43937;41.366;2.072;2023-09-08T01:57:00;100972.59;;;22.74;66.21
56040;BME280;43937;41.366;2.072;2023-09-08T01:59:25;100921.13;;;22.43;66.53
56040;BME280;43937;41.366;2.072;2023-09-08T02:01:50;100966.69;;;22.71;66.75
56040;BME280;43937;41.366;2.072;2023-09-08T02:04:16;100980.69;;;22.64;66.64
56040;BME280;43937;41.366;2.072;2023-09-08T02:06:41;100972.25;;;22.59;67.73
56040;BME280;43937;41.366;2.072;2023-09-08T02:09:08;100974.88;;;22.54;67.25
56040;BME280;43937;41.366;2.072;2023-09-08T02:11:35;100966.09;;;22.57;67.18
56040;BME280;43937;41.366;2.072;2023-09-08T02:14:00;100974.06;;;22.53;67.47
56040;BME280;43937;41.366;2.072;2023-09-08T02:16:26;100980.56;;;22.47;67.62
56040;BME280;43937;41.366;2.072;2023-09-08T02:18:51;100978.25;;;22.44;67.29
56040;BME280;43937;41.366;2.072;2023-09-08T02:21:17;100981.63;;;22.23;68.49
56040;BME280;43937;41.366;2.072;2023-09-08T02:23:42;100986.78;;;22.19;68.92
56040;BME280;43937;41.366;2.072;2023-09-08T02:26:07;100982.44;;;22.23;69.02
56040;BME280;43937;41.366;2.072;2023-09-08T02:28:33;100986.31;;;22.22;68.80
56040;BME280;43937;41.366;2.072;2023-09-08T02:30:58;100986.19;;;22.29;68.91
56040;BME280;43937;41.366;2.072;2023-09-08T02:33:24;100979.97;;;22.33;68.55
56040;BME280;43937;41.366;2.072;2023-09-08T02:37:55;100981.03;;;22.32;68.76
56040;BME280;43937;41.366;2.072;2023-09-08T02:40:20;100980.63;;;22.17;69.05
56040;BME280;43937;41.366;2.072;2023-09-08T02:42:46;100985.75;;;22.02;69.53
56040;BME280;43937;41.366;2.072;2023-09-08T02:45:11;100991.63;;;21.93;70.09
56040;BME280;43937;41.366;2.072;2023-09-08T02:47:37;100987.31;;;21.98;70.03
56040;BME280;43937;41.366;2.072;2023-09-08T02:50:02;100993.38;;;22.06;69.76
56040;BME280;43937;41.366;2.072;2023-09-08T02:52:30;100997.50;;;22.15;69.46
56040;BME280;43937;41.366;2.072;2023-09-08T02:54:55;100994.81;;;22.09;69.39
56040;BME280;43937;41.366;2.072;2023-09-08T02:57:21;100998.81;;;22.13;69.61
56040;BME280;43937;41.366;2.072;2023-09-08T02:59:50;100995.34;;;22.17;68.98
56040;BME280;43937;41.366;2.072;2023-09-08T03:02:21;100990.19;;;22.21;69.10
56040;BME280;43937;41.366;2.072;2023-09-08T03:04:47;100938.47;;;21.96;68.72
56040;BME280;43937;41.366;2.072;2023-09-08T03:07:12;100926.88;;;21.76;69.32
56040;BME280;43937;41.366;2.072;2023-09-08T03:09:38;100994.38;;;22.24;69.20
56040;BME280;43937;41.366;2.072;2023-09-08T03:12:03;100994.50;;;22.17;69.42
56040;BME280;43937;41.366;2.072;2023-09-08T03:14:29;100994.50;;;22.17;69.08
56040;BME280;43937;41.366;2.072;2023-09-08T03:16:54;100987.41;;;22.03;69.98
56040;BME280;43937;41.366;2.072;2023-09-08T03:19:20;100993.84;;;22.03;69.76
56040;BME280;43937;41.366;2.072;2023-09-08T03:21:45;100991.06;;;22.03;69.27
56040;BME280;43937;41.366;2.072;2023-09-08T03:24:11;100991.94;;;22.15;69.45
56040;BME280;43937;41.366;2.072;2023-09-08T03:26:36;100993.88;;;22.15;69.29
56040;BME280;43937;41.366;2.072;2023-09-08T03:29:02;100962.84;;;21.94;69.38
56040;BME280;43937;41.366;2.072;2023-09-08T03:31:28;101000.66;;;22.19;69.32
56040;BME280;43937;41.366;2.072;2023-09-08T03:33:54;101002.94;;;22.22;69.23
56040;BME280;43937;41.366;2.072;2023-09-08T03:36:19;100934.09;;;21.77;68.74
56040;BME280;43937;41.366;2.072;2023-09-08T03:38:45;100990.34;;;22.08;69.43
56040;BME280;43937;41.366;2.072;2023-09-08T03:41:10;100986.94;;;21.94;69.77
56040;BME280;43937;41.366;2.072;2023-09-08T03:43:36;100987.06;;;21.99;69.85
56040;BME280;43937;41.366;2.072;2023-09-08T03:46:01;100992.69;;;21.92;69.94
56040;BME280;43937;41.366;2.072;2023-09-08T03:48:27;100956.22;;;21.65;70.10
56040;BME280;43937;41.366;2.072;2023-09-08T03:50:52;100979.22;;;21.66;70.17
56040;BME280;43937;41.366;2.072;2023-09-08T03:53:17;100982.00;;;21.66;70.14
56040;BME280;43937;41.366;2.072;2023-09-08T03:55:43;100989.78;;;21.57;70.79
56040;BME280;43937;41.366;2.072;2023-09-08T03:58:09;100976.19;;;21.56;70.33
56040;BME280;43937;41.366;2.072;2023-09-08T04:00:35;100936.97;;;21.22;70.44
56040;BME280;43937;41.366;2.072;2023-09-08T04:03:00;100944.34;;;21.28;70.35
56040;BME280;43937;41.366;2.072;2023-09-08T04:05:25;100985.16;;;21.51;69.91
56040;BME280;43937;41.366;2.072;2023-09-08T04:07:51;100997.59;;;21.48;70.07
56040;BME280;43937;41.366;2.072;2023-09-08T04:10:16;100993.91;;;21.36;70.66
56040;BME280;43937;41.366;2.072;2023-09-08T04:14:25;100998.97;;;21.39;70.78
56040;BME280;43937;41.366;2.072;2023-09-08T04:16:53;100996.22;;;21.39;70.14
56040;BME280;43937;41.366;2.072;2023-09-08T04:19:18;100998.97;;;21.39;69.87
56040;BME280;43937;41.366;2.072;2023-09-08T04:21:43;101008.25;;;21.45;69.58
56040;BME280;43937;41.366;2.072;2023-09-08T04:24:09;100999.56;;;21.41;69.58
56040;BME280;43937;41.366;2.072;2023-09-08T04:26:36;101006.19;;;21.40;69.09
56040;BME280;43937;41.366;2.072;2023-09-08T04:29:01;101007.41;;;21.44;68.63
56040;BME280;43937;41.366;2.072;2023-09-08T04:31:27;101006.13;;;21.47;68.24
56040;BME280;43937;41.366;2.072;2023-09-08T04:33:53;100940.78;;;21.21;67.44
56040;BME280;43937;41.366;2.072;2023-09-08T04:36:19;100945.41;;;21.27;66.57
56040;BME280;43937;41.366;2.072;2023-09-08T04:38:44;100992.53;;;21.57;66.44
56040;BME280;43937;41.366;2.072;2023-09-08T04:41:10;100940.88;;;21.33;65.77
56040;BME280;43937;41.366;2.072;2023-09-08T04:43:35;100991.09;;;21.73;65.46
56040;BME280;43937;41.366;2.072;2023-09-08T04:46:01;100987.97;;;21.81;64.99
56040;BME280;43937;41.366;2.072;2023-09-08T04:50:30;100998.41;;;21.98;64.50
56040;BME280;43937;41.366;2.072;2023-09-08T04:52:56;100982.28;;;21.76;64.79
56040;BME280;43937;41.366;2.072;2023-09-08T04:55:21;100983.88;;;21.84;64.39
56040;BME280;43937;41.366;2.072;2023-09-08T04:57:47;100946.13;;;21.71;63.86
56040;BME280;43937;41.366;2.072;2023-09-08T05:00:12;100997.16;;;21.93;64.38
56040;BME280;43937;41.366;2.072;2023-09-08T05:02:38;100993.66;;;21.86;64.48
56040;BME280;43937;41.366;2.072;2023-09-08T05:05:04;100995.81;;;21.84;64.65
56040;BME280;43937;41.366;2.072;2023-09-08T05:07:29;100999.03;;;21.81;64.75
56040;BME280;43937;41.366;2.072;2023-09-08T05:09:55;100949.63;;;21.48;64.47
56040;BME280;43937;41.366;2.072;2023-09-08T05:12:20;100999.69;;;21.65;64.96
56040;BME280;43937;41.366;2.072;2023-09-08T05:14:46;100998.78;;;21.71;64.96
56040;BME280;43937;41.366;2.072;2023-09-08T05:17:11;100969.38;;;21.40;64.76
56040;BME280;43937;41.366;2.072;2023-09-08T05:19:37;100979.88;;;21.49;64.72
56040;BME280;43937;41.366;2.072;2023-09-08T05:22:05;101001.72;;;21.58;65.18
56040;BME280;43937;41.366;2.072;2023-09-08T05:24:32;100999.56;;;21.60;64.98
56040;BME280;43937;41.366;2.072;2023-09-08T05:26:57;100999.59;;;21.71;64.91
56040;BME280;43937;41.366;2.072;2023-09-08T05:29:23;100992.38;;;21.70;65.10
56040;BME280;43937;41.366;2.072;2023-09-08T05:31:49;100992.34;;;21.59;65.09
56040;BME280;43937;41.366;2.072;2023-09-08T05:34:14;100981.09;;;21.54;65.50
56040;BME280;43937;41.366;2.072;2023-09-08T05:36:40;100996.94;;;21.65;65.45
56040;BME280;43937;41.366;2.072;2023-09-08T05:39:07;100997.41;;;21.62;65.34
56040;BME280;43937;41.366;2.072;2023-09-08T05:41:32;101007.75;;;21.85;64.90
56040;BME280;43937;41.366;2.072;2023-09-08T05:43:59;100997.97;;;21.82;64.79
56040;BME280;43937;41.366;2.072;2023-09-08T05:46:25;101005.47;;;21.93;64.73
56040;BME280;43937;41.366;2.072;2023-09-08T05:48:50;101002.16;;;22.03;64.17
56040;BME280;43937;41.366;2.072;2023-09-08T05:51:16;101009.91;;;21.83;64.70
56040;BME280;43937;41.366;2.072;2023-09-08T05:53:41;100972.16;;;21.70;64.53
56040;BME280;43937;41.366;2.072;2023-09-08T05:56:07;101021.56;;;22.03;64.45
56040;BME280;43937;41.366;2.072;2023-09-08T05:58:33;101018.38;;;21.88;64.80
56040;BME280;43937;41.366;2.072;2023-09-08T06:01:00;101001.97;;;21.86;64.31
56040;BME280;43937;41.366;2.072;2023-09-08T06:03:26;101031.66;;;21.98;64.66
56040;BME280;43937;41.366;2.072;2023-09-08T06:05:51;101016.53;;;22.12;64.12
56040;BME280;43937;41.366;2.072;2023-09-08T06:08:17;101040.56;;;22.18;63.60
56040;BME280;43937;41.366;2.072;2023-09-08T06:10:42;101030.69;;;22.22;63.58
56040;BME280;43937;41.366;2.072;2023-09-08T06:13:08;101042.63;;;22.23;63.35
56040;BME280;43937;41.366;2.072;2023-09-08T06:15:33;101041.78;;;22.22;63.34
56040;BME280;43937;41.366;2.072;2023-09-08T06:17:58;101021.88;;;22.25;63.04
56040;BME280;43937;41.366;2.072;2023-09-08T06:20:24;101045.34;;;23.47;58.92
56040;BME280;43937;41.366;2.072;2023-09-08T06:22:50;101040.81;;;25.67;52.86
56040;BME280;43937;41.366;2.072;2023-09-08T06:25:15;101041.78;;;27.28;47.81
56040;BME280;43937;41.366;2.072;2023-09-08T06:27:41;101060.72;;;28.57;45.25
56040;BME280;43937;41.366;2.072;2023-09-08T06:30:07;101063.44;;;30.09;41.17
56040;BME280;43937;41.366;2.072;2023-09-08T06:32:33;101064.19;;;31.27;39.25
56040;BME280;43937;41.366;2.072;2023-09-08T06:34:58;101045.88;;;30.38;39.57
56040;BME280;43937;41.366;2.072;2023-09-08T06:37:23;101039.06;;;28.32;43.74
56040;BME280;43937;41.366;2.072;2023-09-08T06:41:59;100986.25;;;31.76;36.10
56040;BME280;43937;41.366;2.072;2023-09-08T06:44:24;101077.34;;;32.99;34.91
56040;BME280;43937;41.366;2.072;2023-09-08T06:46:51;101069.91;;;32.70;34.24
56040;BME280;43937;41.366;2.072;2023-09-08T06:49:16;101076.44;;;33.17;34.04
56040;BME280;43937;41.366;2.072;2023-09-08T06:51:42;101077.88;;;34.25;31.69
56040;BME280;43937;41.366;2.072;2023-09-08T06:54:07;101083.53;;;34.61;31.38
56040;BME280;43937;41.366;2.072;2023-09-08T06:56:35;101073.72;;;35.35;30.07
56040;BME280;43937;41.366;2.072;2023-09-08T06:59:02;101078.03;;;35.01;30.48
56040;BME280;43937;41.366;2.072;2023-09-08T07:01:27;101083.00;;;35.58;29.62
56040;BME280;43937;41.366;2.072;2023-09-08T07:03:53;101074.53;;;36.50;28.83
56040;BME280;43937;41.366;2.072;2023-09-08T07:06:18;101085.00;;;37.10;27.91
56040;BME280;43937;41.366;2.072;2023-09-08T07:08:47;101087.44;;;37.29;27.03
56040;BME280;43937;41.366;2.072;2023-09-08T07:11:15;101087.13;;;37.22;26.94
56040;BME280;43937;41.366;2.072;2023-09-08T07:13:41;101060.63;;;38.16;26.08
56040;BME280;43937;41.366;2.072;2023-09-08T07:16:06;101076.06;;;38.06;26.10
56040;BME280;43937;41.366;2.072;2023-09-08T07:18:32;101100.97;;;37.79;25.80
56040;BME280;43937;41.366;2.072;2023-09-08T07:21:04;101092.03;;;37.90;26.13
56040;BME280;43937;41.366;2.072;2023-09-08T07:23:29;101093.09;;;37.76;25.82
56040;BME280;43937;41.366;2.072;2023-09-08T07:25:55;101084.81;;;37.63;25.80
56040;BME280;43937;41.366;2.072;2023-09-08T07:28:20;101080.66;;;37.60;26.55
56040;BME280;43937;41.366;2.072;2023-09-08T07:30:46;101094.81;;;38.28;25.58
56040;BME280;43937;41.366;2.072;2023-09-08T07:33:11;101092.81;;;38.70;24.76
56040;BME280;43937;41.366;2.072;2023-09-08T07:36:32;101062.38;;;38.50;24.35
56040;BME280;43937;41.366;2.072;2023-09-08T07:38:58;101097.94;;;38.56;24.61
56040;BME280;43937;41.366;2.072;2023-09-08T07:41:23;101101.34;;;37.99;25.69
56040;BME280;43937;41.366;2.072;2023-09-08T07:43:49;101096.19;;;38.85;24.83
56040;BME280;43937;41.366;2.072;2023-09-08T07:46:16;101104.41;;;38.15;25.01
56040;BME280;43937;41.366;2.072;2023-09-08T07:48:41;101105.22;;;38.66;24.28
56040;BME280;43937;41.366;2.072;2023-09-08T07:52:33;101093.16;;;39.48;23.28
56040;BME280;43937;41.366;2.072;2023-09-08T07:54:58;101106.34;;;39.07;24.07
56040;BME280;43937;41.366;2.072;2023-09-08T07:57:23;101082.44;;;38.87;23.83
56040;BME280;43937;41.366;2.072;2023-09-08T07:59:49;101051.25;;;38.15;24.38
56040;BME280;43937;41.366;2.072;2023-09-08T08:02:14;101093.75;;;38.75;24.19
56040;BME280;43937;41.366;2.072;2023-09-08T08:04:40;101104.13;;;39.25;23.87
56040;BME280;43937;41.366;2.072;2023-09-08T08:07:05;101108.84;;;39.08;23.93
56040;BME280;43937;41.366;2.072;2023-09-08T08:09:31;101105.53;;;39.18;23.63
56040;BME280;43937;41.366;2.072;2023-09-08T08:11:56;101103.72;;;39.02;23.75
56040;BME280;43937;41.366;2.072;2023-09-08T08:14:22;101106.59;;;39.72;23.65
56040;BME280;43937;41.366;2.072;2023-09-08T08:16:47;101108.94;;;39.57;22.96
56040;BME280;43937;41.366;2.072;2023-09-08T08:19:13;101113.47;;;39.46;23.41
56040;BME280;43937;41.366;2.072;2023-09-08T08:21:38;101112.38;;;39.38;23.51
56040;BME280;43937;41.366;2.072;2023-09-08T08:24:07;101120.16;;;39.87;23.39
56040;BME280;43937;41.366;2.072;2023-09-08T08:26:32;101124.69;;;40.65;22.62
56040;BME280;43937;41.366;2.072;2023-09-08T08:28:58;101123.09;;;40.27;22.46
56040;BME280;43937;41.366;2.072;2023-09-08T08:31:23;101124.78;;;40.57;22.62
56040;BME280;43937;41.366;2.072;2023-09-08T08:33:49;101105.03;;;41.20;21.46
56040;BME280;43937;41.366;2.072;2023-09-08T08:36:14;101126.97;;;40.47;21.90
56040;BME280;43937;41.366;2.072;2023-09-08T08:38:40;101129.88;;;40.23;22.69
56040;BME280;43937;41.366;2.072;2023-09-08T08:41:05;101119.34;;;38.96;23.63
56040;BME280;43937;41.366;2.072;2023-09-08T08:43:32;101119.53;;;39.24;24.11
56040;BME280;43937;41.366;2.072;2023-09-08T08:45:58;101128.19;;;39.60;23.17
56040;BME280;43937;41.366;2.072;2023-09-08T08:48:25;101119.53;;;39.24;23.09
56040;BME280;43937;41.366;2.072;2023-09-08T08:50:53;101119.31;;;39.16;23.67
56040;BME280;43937;41.366;2.072;2023-09-08T08:53:20;101072.31;;;37.85;24.81
56040;BME280;43937;41.366;2.072;2023-09-08T08:55:46;101089.72;;;36.54;26.82
56040;BME280;43937;41.366;2.072;2023-09-08T08:58:12;101116.22;;;35.75;28.03
56040;BME280;43937;41.366;2.072;2023-09-08T09:00:39;101084.03;;;34.41;29.30
56040;BME280;43937;41.366;2.072;2023-09-08T09:03:07;101110.97;;;33.97;30.75
56040;BME280;43937;41.366;2.072;2023-09-08T09:05:34;101094.94;;;33.37;31.53
56040;BME280;43937;41.366;2.072;2023-09-08T09:08:02;101096.69;;;33.19;32.13
56040;BME280;43937;41.366;2.072;2023-09-08T09:10:30;101100.41;;;32.68;32.02
56040;BME280;43937;41.366;2.072;2023-09-08T09:12:56;101101.06;;;32.22;33.67
56040;BME280;43937;41.366;2.072;2023-09-08T09:15:31;101075.41;;;32.05;33.92
56040;BME280;43937;41.366;2.072;2023-09-08T09:18:05;101101.06;;;32.22;33.77
56040;BME280;43937;41.366;2.072;2023-09-08T09:20:30;101107.63;;;32.36;34.31
56040;BME280;43937;41.366;2.072;2023-09-08T09:24:01;101104.94;;;33.02;32.60
56040;BME280;43937;41.366;2.072;2023-09-08T09:26:26;101096.34;;;32.74;33.37
56040;BME280;43937;41.366;2.072;2023-09-08T09:28:52;101088.91;;;32.97;32.96
56040;BME280;43937;41.366;2.072;2023-09-08T09:31:22;101101.91;;;33.12;32.42
56040;BME280;43937;41.366;2.072;2023-09-08T09:34:01;101096.72;;;32.30;34.06
56040;BME280;43937;41.366;2.072;2023-09-08T09:36:26;101094.00;;;32.63;34.17
56040;BME280;43937;41.366;2.072;2023-09-08T09:38:52;101090.41;;;32.19;35.68
56040;BME280;43937;41.366;2.072;2023-09-08T09:41:17;101084.78;;;32.57;34.08
56040;BME280;43937;41.366;2.072;2023-09-08T09:43:43;101058.81;;;32.03;34.53
56040;BME280;43937;41.366;2.072;2023-09-08T09:46:09;101043.97;;;32.54;33.07
56040;BME280;43937;41.366;2.072;2023-09-08T09:48:35;101055.63;;;32.48;33.90
56040;BME280;43937;41.366;2.072;2023-09-08T09:51:15;101086.66;;;32.99;34.11
56040;BME280;43937;41.366;2.072;2023-09-08T09:53:41;101032.41;;;31.99;34.45
56040;BME280;43937;41.366;2.072;2023-09-08T09:56:08;101080.22;;;32.61;34.81
56040;BME280;43937;41.366;2.072;2023-09-08T09:58:35;101078.59;;;33.06;33.92
56040;BME280;43937;41.366;2.072;2023-09-08T10:01:02;101077.41;;;32.94;32.99
56040;BME280;43937;41.366;2.072;2023-09-08T10:03:29;101070.25;;;33.15;32.73
56040;BME280;43937;41.366;2.072;2023-09-08T10:05:56;101083.44;;;32.87;32.24
56040;BME280;43937;41.366;2.072;2023-09-08T10:10:08;101073.69;;;32.98;31.93
56040;BME280;43937;41.366;2.072;2023-09-08T10:12:36;101085.09;;;32.88;32.35
56040;BME280;43937;41.366;2.072;2023-09-08T10:15:02;101084.72;;;32.62;31.61
56040;BME280;43937;41.366;2.072;2023-09-08T10:17:31;101081.69;;;33.24;31.34
56040;BME280;43937;41.366;2.072;2023-09-08T10:20:00;101025.16;;;32.82;33.06
56040;BME280;43937;41.366;2.072;2023-09-08T10:22:30;101085.19;;;33.02;32.16
56040;BME280;43937;41.366;2.072;2023-09-08T10:24:57;101086.84;;;33.03;33.17
56040;BME280;43937;41.366;2.072;2023-09-08T10:27:27;101080.59;;;33.06;32.56
56040;BME280;43937;41.366;2.072;2023-09-08T10:29:53;101076.44;;;33.17;33.36
56040;BME280;43937;41.366;2.072;2023-09-08T10:32:19;101076.25;;;32.95;34.22
56040;BME280;43937;41.366;2.072;2023-09-08T10:34:46;101061.03;;;32.96;33.87
56040;BME280;43937;41.366;2.072;2023-09-08T10:37:23;101073.09;;;33.01;33.83
56040;BME280;43937;41.366;2.072;2023-09-08T10:39:54;101078.63;;;32.55;34.12
56040;BME280;43937;41.366;2.072;2023-09-08T10:42:21;101074.25;;;32.44;33.56
56040;BME280;43937;41.366;2.072;2023-09-08T10:47:41;101081.31;;;32.79;33.48
56040;BME280;43937;41.366;2.072;2023-09-08T10:50:04;101077.31;;;32.66;34.11
56040;BME280;43937;41.366;2.072;2023-09-08T10:52:30;101080.81;;;32.20;34.42
56040;BME280;43937;41.366;2.072;2023-09-08T10:54:58;101066.22;;;32.56;34.56
56040;BME280;43937;41.366;2.072;2023-09-08T10:57:24;101073.09;;;33.15;32.59
56040;BME280;43937;41.366;2.072;2023-09-08T10:59:57;101072.56;;;32.80;33.47
56040;BME280;43937;41.366;2.072;2023-09-08T11:02:36;101066.41;;;33.11;33.40
56040;BME280;43937;41.366;2.072;2023-09-08T11:05:03;101054.09;;;32.88;32.29
56040;BME280;43937;41.366;2.072;2023-09-08T11:08:18;101060.88;;;32.35;33.72
56040;BME280;43937;41.366;2.072;2023-09-08T11:10:44;101058.88;;;32.55;32.91
56040;BME280;43937;41.366;2.072;2023-09-08T11:13:10;101045.34;;;32.38;33.27
56040;BME280;43937;41.366;2.072;2023-09-08T11:15:37;101023.78;;;32.28;33.07
56040;BME280;43937;41.366;2.072;2023-09-08T11:18:06;101069.41;;;32.68;33.08
56040;BME280;43937;41.366;2.072;2023-09-08T11:20:31;101057.22;;;32.16;33.59
56040;BME280;43937;41.366;2.072;2023-09-08T11:22:57;101053.78;;;31.76;36.22
56040;BME280;43937;41.366;2.072;2023-09-08T11:25:23;101047.16;;;32.10;34.99
56040;BME280;43937;41.366;2.072;2023-09-08T11:27:48;101054.00;;;32.04;34.77
56040;BME280;43937;41.366;2.072;2023-09-08T11:30:15;101022.03;;;31.94;34.17
56040;BME280;43937;41.366;2.072;2023-09-08T11:32:44;101064.91;;;32.29;34.54
56040;BME280;43937;41.366;2.072;2023-09-08T11:35:10;101051.22;;;32.23;34.78
56040;BME280;43937;41.366;2.072;2023-09-08T11:37:42;101040.25;;;32.21;34.99
56040;BME280;43937;41.366;2.072;2023-09-08T11:40:08;101044.09;;;32.25;34.10
56040;BME280;43937;41.366;2.072;2023-09-08T11:42:42;101029.06;;;31.73;34.94
56040;BME280;43937;41.366;2.072;2023-09-08T11:45:13;101018.66;;;31.49;36.09
56040;BME280;43937;41.366;2.072;2023-09-08T11:47:43;101019.91;;;31.86;35.33
56040;BME280;43937;41.366;2.072;2023-09-08T11:50:09;101036.06;;;32.00;35.39
56040;BME280;43937;41.366;2.072;2023-09-08T11:52:37;101040.31;;;31.97;34.81
56040;BME280;43937;41.366;2.072;2023-09-08T11:55:04;101006.34;;;31.88;35.44
56040;BME280;43937;41.366;2.072;2023-09-08T11:57:30;101011.13;;;31.88;36.39
56040;BME280;43937;41.366;2.072;2023-09-08T11:59:58;101036.44;;;31.93;36.69
56040;BME280;43937;41.366;2.072;2023-09-08T12:02:25;101009.81;;;31.37;36.39
56040;BME280;43937;41.366;2.072;2023-09-08T12:04:53;101024.63;;;31.19;37.13
56040;BME280;43937;41.366;2.072;2023-09-08T12:07:19;101027.66;;;31.52;37.04
56040;BME280;43937;41.366;2.072;2023-09-08T12:09:45;101030.94;;;31.11;37.63
56040;BME280;43937;41.366;2.072;2023-09-08T12:12:12;101015.00;;;31.25;36.50
56040;BME280;43937;41.366;2.072;2023-09-08T12:14:42;101018.16;;;31.47;36.15
56040;BME280;43937;41.366;2.072;2023-09-08T12:17:08;101009.13;;;31.51;37.05
56040;BME280;43937;41.366;2.072;2023-09-08T12:19:33;101019.34;;;31.41;37.98
56040;BME280;43937;41.366;2.072;2023-09-08T12:22:03;101014.84;;;31.40;36.80
56040;BME280;43937;41.366;2.072;2023-09-08T12:24:49;101021.25;;;31.46;36.88
56040;BME280;43937;41.366;2.072;2023-09-08T12:27:16;101033.69;;;31.64;36.14
56040;BME280;43937;41.366;2.072;2023-09-08T12:32:17;101029.28;;;31.29;37.48
56040;BME280;43937;41.366;2.072;2023-09-08T12:34:43;101005.78;;;31.19;38.07
56040;BME280;43937;41.366;2.072;2023-09-08T12:39:10;100990.94;;;30.90;37.16
56040;BME280;43937;41.366;2.072;2023-09-08T12:41:35;100982.59;;;31.09;36.47
56040;BME280;43937;41.366;2.072;2023-09-08T12:46:56;101024.13;;;31.17;36.63
56040;BME280;43937;41.366;2.072;2023-09-08T12:49:21;101004.56;;;30.72;37.76
56040;BME280;43937;41.366;2.072;2023-09-08T12:51:47;101019.75;;;31.30;37.11
56040;BME280;43937;41.366;2.072;2023-09-08T12:54:12;100989.69;;;31.25;36.44
56040;BME280;43937;41.366;2.072;2023-09-08T12:56:38;101007.16;;;31.22;36.51
56040;BME280;43937;41.366;2.072;2023-09-08T12:59:03;101012.88;;;31.17;37.32
56040;BME280;43937;41.366;2.072;2023-09-08T13:01:29;100970.53;;;30.79;37.05
56040;BME280;43937;41.366;2.072;2023-09-08T13:03:54;101005.50;;;31.21;36.64
56040;BME280;43937;41.366;2.072;2023-09-08T13:06:20;101011.91;;;31.26;36.05
56040;BME280;43937;41.366;2.072;2023-09-08T13:08:45;101001.72;;;30.77;37.42
56040;BME280;43937;41.366;2.072;2023-09-08T13:11:11;101007.34;;;31.07;36.74
56040;BME280;43937;41.366;2.072;2023-09-08T13:13:36;100980.88;;;30.49;37.78
56040;BME280;43937;41.366;2.072;2023-09-08T13:16:02;100964.72;;;30.36;38.49